»·PEaware :: N52789 KAVX-KSAN

N52789 :: KAVX-KSAN

FLIGHT INFORMATION

Flight Status: Arrived
Operator: Privately registered:
United States
More flights under this callsign
Pilot: Alex B. (29751)
Aircraft: CESSNA 172 SKYHAWK
(C172)
More flights by this aircraft type
Origin: KAVX Catalina
United States
Destination: KSAN San Diego Intl-Lindbergh
United States
More flights between these airports :: More routes between these airports
Route: PACIF
File this flight plan on PilotEdge
Remarks:
Altitude:
(Current/Filed)
7,500ft
Speed:
(Current/Filed)
120kts
Departed: 09-Jan-21 10:14 AM
Arrived: 09-Jan-21 10:56 AM
Distance/Time
Traveled:
6804nm/0:42
Distance/Time
To Go:
Arrived

Flight Plot

Page will automatically refresh every two minutes.

Flight plan parsing failed; only flown route is shown


Map Options




Map Legend


Flown Route
Filed Route
Departure Airport
Arrival Airport
Navaid (VOR, NDB)
Fix

Horizontal Profiles

Position Reports

Time Latitude Longitude Heading Altitude Ground
Speed
09-Jan-21 10:02 33.403254 -118.416496 214 1588ft 0kts
09-Jan-21 10:03 33.403254 -118.416496 214 1588ft 0kts
09-Jan-21 10:04 33.403254 -118.416496 214 1588ft 0kts
09-Jan-21 10:05 33.403254 -118.416495 214 1588ft 0kts
09-Jan-21 10:06 33.403254 -118.416495 214 1588ft 0kts
09-Jan-21 10:07 33.403254 -118.416495 214 1588ft 0kts
09-Jan-21 10:08 33.403254 -118.416495 214 1588ft 0kts
09-Jan-21 10:09 33.403254 -118.416495 214 1588ft 0kts
09-Jan-21 10:10 33.403185 -118.416433 82 1589ft 2kts
09-Jan-21 10:11 33.402448 -118.419373 234 1600ft 0kts
09-Jan-21 10:12 33.402671 -118.419711 55 1601ft 0kts
09-Jan-21 10:13 33.407796 -118.411140 59 1809ft 63kts
09-Jan-21 10:14 33.400242 -118.390620 108 2475ft 77kts
09-Jan-21 10:15 33.395659 -118.366614 76 3158ft 71kts
09-Jan-21 10:16 33.391458 -118.341859 89 3778ft 75kts
09-Jan-21 10:17 33.386453 -118.313230 102 4223ft 99kts
09-Jan-21 10:18 33.376956 -118.280970 102 4729ft 104kts
09-Jan-21 10:19 33.366892 -118.247923 101 5228ft 105kts
09-Jan-21 10:20 33.358122 -118.214428 98 5727ft 105kts
09-Jan-21 10:21 33.350139 -118.180924 97 6227ft 104kts
09-Jan-21 10:22 33.342118 -118.147739 97 6728ft 103kts
09-Jan-21 10:23 33.337709 -118.114428 94 7230ft 102kts
09-Jan-21 10:24 33.330259 -118.079984 96 7501ft 118kts
09-Jan-21 10:25 33.321932 -118.040137 96 7497ft 126kts
09-Jan-21 10:26 33.313599 -117.999284 96 7491ft 126kts
09-Jan-21 10:27 33.305746 -117.958410 94 7491ft 125kts
09-Jan-21 10:28 33.299158 -117.917492 93 7489ft 125kts
09-Jan-21 10:29 33.292788 -117.876630 93 7490ft 124kts
09-Jan-21 10:30 33.286500 -117.835798 93 7490ft 124kts
09-Jan-21 10:31 33.280261 -117.795065 93 7490ft 124kts
09-Jan-21 10:32 33.273630 -117.754446 105 7489ft 127kts
09-Jan-21 10:33 33.252625 -117.719560 130 7490ft 130kts
09-Jan-21 10:35 33.225553 -117.690611 140 7490ft 130kts
09-Jan-21 10:36 33.197261 -117.663496 140 7490ft 130kts
09-Jan-21 10:37 33.169162 -117.636353 139 7490ft 129kts
09-Jan-21 10:38 33.141368 -117.608963 139 7490ft 129kts
09-Jan-21 10:39 33.113648 -117.581599 139 7479ft 130kts
09-Jan-21 10:40 33.098285 -117.542581 103 7172ft 137kts
09-Jan-21 10:41 33.086657 -117.498979 103 6733ft 132kts
09-Jan-21 10:42 33.076150 -117.459484 103 6731ft 121kts
09-Jan-21 10:43 33.062415 -117.423638 131 6733ft 122kts
09-Jan-21 10:44 33.038622 -117.394619 132 6735ft 122kts
09-Jan-21 10:45 33.009842 -117.372207 152 6590ft 132kts
09-Jan-21 10:46 32.974769 -117.351741 153 5776ft 146kts
09-Jan-21 10:47 32.938193 -117.330992 153 4767ft 144kts
09-Jan-21 10:48 32.904544 -117.312148 153 4482ft 122kts
09-Jan-21 10:48 32.878926 -117.297923 153 4380ft 125kts
09-Jan-21 10:49 32.846973 -117.279936 148 4080ft 127kts
09-Jan-21 10:50 32.817433 -117.258875 148 3772ft 116kts
09-Jan-21 10:52 32.785858 -117.236063 148 3377ft 116kts
09-Jan-21 10:52 32.762615 -117.215878 136 2399ft 122kts
09-Jan-21 10:53 32.741647 -117.185137 103 1153ft 110kts
09-Jan-21 10:54 32.728891 -117.166940 250 642ft 74kts
09-Jan-21 10:55 32.733009 -117.187553 279 18ft 22kts
09-Jan-21 10:56 32.732533 -117.188598 197 20ft 0kts
09-Jan-21 10:57 32.732445 -117.188533 137 20ft 5kts
09-Jan-21 10:58 32.731977 -117.187398 102 22ft 0kts
09-Jan-21 10:59 32.731206 -117.184223 108 18ft 16kts
09-Jan-21 11:00 32.729771 -117.178413 106 13ft 19kts
09-Jan-21 11:01 32.729503 -117.176784 71 14ft 0kts
09-Jan-21 11:02 32.730838 -117.175425 330 17ft 12kts
09-Jan-21 11:03 32.732669 -117.178370 300 17ft 8kts
09-Jan-21 11:04 32.733357 -117.178598 300 18ft 2kts
09-Jan-21 11:06 0.000000 0.000000 0 0ft 0kts

Navigation Log

Ident Type
Flight plan parsing failed, navigation log unavailable